createdAt,value
2018-03-22T00:01:16.864Z,52.94
2018-03-22T00:03:45.775Z,52.85
2018-03-22T00:06:14.733Z,52.84
2018-03-22T00:08:43.980Z,52.63
2018-03-22T00:11:12.936Z,51.97
2018-03-22T00:13:41.922Z,51.97
2018-03-22T00:16:11.280Z,51.51
2018-03-22T00:18:40.290Z,51.31
2018-03-22T00:21:09.253Z,51.37
2018-03-22T00:23:39.488Z,50.60
2018-03-22T00:26:08.380Z,50.57
2018-03-22T00:28:37.601Z,50.70
2018-03-22T00:31:07.918Z,50.23
2018-03-22T00:33:36.809Z,50.02
2018-03-22T00:36:06.554Z,50.47
2018-03-22T00:38:35.804Z,50.73
2018-03-22T00:41:05.810Z,50.93
2018-03-22T00:43:34.694Z,50.88
2018-03-22T00:46:04.985Z,51.13
2018-03-22T00:48:33.920Z,51.46
2018-03-22T00:51:03.230Z,51.66
2018-03-22T00:53:32.105Z,52.11
2018-03-22T00:56:01.942Z,52.30
2018-03-22T00:58:31.171Z,52.90
2018-03-22T01:01:00.164Z,53.31
2018-03-22T01:03:29.030Z,53.48
2018-03-22T01:05:57.884Z,53.73
2018-03-22T01:08:27.094Z,53.38
2018-03-22T01:10:56.291Z,53.26
2018-03-22T01:13:25.220Z,53.92
2018-03-22T01:15:54.211Z,53.86
2018-03-22T01:18:23.401Z,53.78
2018-03-22T01:20:52.320Z,53.92
2018-03-22T01:23:21.214Z,53.69
2018-03-22T01:25:50.412Z,53.75
2018-03-22T01:28:19.327Z,54.42
2018-03-22T01:30:48.212Z,54.47
2018-03-22T01:33:17.413Z,54.11
2018-03-22T01:35:46.326Z,54.16
2018-03-22T01:38:15.251Z,54.17
2018-03-22T01:40:44.507Z,54.51
2018-03-22T01:43:13.395Z,54.89
2018-03-22T01:45:42.307Z,54.98
2018-03-22T01:48:11.502Z,55.26
2018-03-22T01:50:40.389Z,55.56
2018-03-22T01:53:14.868Z,56.55
2018-03-22T01:55:44.067Z,56.44
2018-03-22T01:58:13.095Z,57.67
2018-03-22T02:00:42.011Z,58.70
2018-03-22T02:03:11.188Z,59.60
2018-03-22T02:05:40.050Z,59.58
2018-03-22T02:08:08.935Z,59.58
2018-03-22T02:10:38.644Z,59.32
2018-03-22T02:13:07.578Z,59.33
2018-03-22T02:15:36.442Z,59.20
2018-03-22T02:18:06.757Z,59.30
2018-03-22T02:20:36.020Z,59.14
2018-03-22T02:23:04.943Z,59.26
2018-03-22T02:25:34.141Z,59.01
2018-03-22T02:28:04.627Z,59.06
2018-03-22T02:30:33.556Z,59.21
2018-03-22T02:33:03.063Z,59.27
2018-03-22T02:35:32.434Z,59.60
2018-03-22T02:38:02.987Z,59.41
2018-03-22T02:40:32.146Z,59.10
2018-03-22T02:43:01.139Z,58.49
2018-03-22T02:45:30.023Z,58.38
2018-03-22T02:47:59.238Z,58.77
2018-03-22T02:50:28.155Z,58.64
2018-03-22T02:52:57.096Z,58.15
2018-03-22T02:55:26.304Z,58.41
2018-03-22T02:57:55.305Z,58.38
2018-03-22T03:00:24.263Z,58.51
2018-03-22T03:02:53.973Z,59.11
2018-03-22T03:05:22.843Z,59.14
2018-03-22T03:07:51.751Z,59.55
2018-03-22T03:10:21.225Z,59.65
2018-03-22T03:12:50.202Z,59.85
2018-03-22T03:15:19.158Z,59.68
2018-03-22T03:17:48.431Z,59.65
2018-03-22T03:20:17.399Z,59.65
2018-03-22T03:22:46.291Z,59.89
2018-03-22T03:25:15.736Z,59.81
2018-03-22T03:27:44.661Z,59.58
2018-03-22T03:30:13.548Z,59.66
2018-03-22T03:32:43.731Z,58.81
2018-03-22T03:35:12.615Z,58.57
2018-03-22T03:37:41.464Z,58.04
2018-03-22T03:40:10.611Z,58.04
2018-03-22T03:42:39.523Z,57.53
2018-03-22T03:45:08.397Z,57.73
2018-03-22T03:47:38.635Z,57.86
2018-03-22T03:50:07.512Z,57.44
2018-03-22T03:52:36.382Z,57.34
2018-03-22T03:55:06.691Z,57.63
2018-03-22T03:57:35.537Z,58.20
2018-03-22T04:00:06.554Z,58.68
2018-03-22T04:02:35.721Z,59.01
2018-03-22T04:05:05.015Z,59.03
2018-03-22T04:07:33.868Z,59.45
2018-03-22T04:10:04.426Z,59.90
2018-03-22T04:12:33.335Z,59.76
2018-03-22T04:15:02.614Z,59.52
2018-03-22T04:17:31.815Z,59.05
2018-03-22T04:20:00.840Z,58.84
2018-03-22T04:22:29.768Z,58.60
2018-03-22T04:25:00.005Z,58.21
2018-03-22T04:27:28.857Z,58.21
2018-03-22T04:29:57.783Z,57.81
2018-03-22T04:32:26.927Z,57.96
2018-03-22T04:34:55.868Z,57.62
2018-03-22T04:37:24.731Z,57.81
2018-03-22T04:39:53.924Z,57.86
2018-03-22T04:42:22.995Z,58.23
2018-03-22T04:44:51.870Z,58.00
2018-03-22T04:47:21.042Z,58.04
2018-03-22T04:49:49.913Z,58.46
2018-03-22T04:52:18.777Z,58.10
2018-03-22T04:54:48.298Z,58.10
2018-03-22T04:57:47.271Z,58.30
2018-03-22T05:00:16.460Z,58.75
2018-03-22T05:02:45.434Z,58.83
2018-03-22T05:05:14.434Z,58.66
2018-03-22T05:07:43.595Z,58.82
2018-03-22T05:10:12.488Z,58.69
2018-03-22T05:12:41.417Z,58.78
2018-03-22T05:15:11.435Z,58.99
2018-03-22T05:17:40.997Z,58.95
2018-03-22T05:20:09.844Z,58.77
2018-03-22T05:22:38.780Z,58.96
2018-03-22T05:25:07.713Z,59.34
2018-03-22T05:27:36.925Z,59.28
2018-03-22T05:30:06.697Z,59.53
2018-03-22T05:32:35.588Z,59.45
2018-03-22T05:35:05.622Z,59.32
2018-03-22T05:37:34.502Z,59.69
2018-03-22T05:40:04.859Z,59.48
2018-03-22T05:42:34.154Z,59.26
2018-03-22T05:45:03.921Z,59.36
2018-03-22T05:47:32.932Z,59.83
2018-03-22T05:50:04.023Z,59.82
2018-03-22T05:52:33.034Z,59.58
2018-03-22T05:55:03.617Z,59.73
2018-03-22T05:57:32.821Z,59.72
2018-03-22T06:00:03.050Z,59.18
2018-03-22T06:02:32.024Z,59.40
2018-03-22T06:05:02.058Z,59.48
2018-03-22T06:07:31.427Z,59.16
2018-03-22T06:10:00.714Z,59.06
2018-03-22T06:12:30.957Z,58.97
2018-03-22T06:14:59.978Z,58.95
2018-03-22T06:17:28.843Z,59.25
2018-03-22T06:19:58.106Z,59.38
2018-03-22T06:22:27.091Z,59.20
2018-03-22T06:24:56.378Z,59.24
2018-03-22T06:27:25.640Z,59.03
2018-03-22T06:29:54.613Z,59.12
2018-03-22T06:32:27.658Z,59.35
2018-03-22T06:34:57.022Z,59.83
2018-03-22T06:37:26.001Z,59.44
2018-03-22T06:39:55.070Z,59.27
2018-03-22T06:42:24.358Z,58.85
2018-03-22T06:44:53.356Z,58.57
2018-03-22T06:47:22.267Z,58.60
2018-03-22T06:49:51.540Z,58.66
2018-03-22T06:52:20.516Z,58.77
2018-03-22T06:54:49.423Z,57.99
2018-03-22T06:57:22.254Z,58.11
2018-03-22T06:59:51.579Z,57.94
2018-03-22T07:02:20.849Z,57.95
2018-03-22T07:04:50.047Z,57.76
2018-03-22T07:07:18.999Z,58.20
2018-03-22T07:09:47.990Z,58.37
2018-03-22T07:12:17.495Z,57.76
2018-03-22T07:14:46.395Z,57.73
2018-03-22T07:17:15.611Z,57.50
2018-03-22T07:19:44.888Z,57.14
2018-03-22T07:22:13.965Z,57.03
2018-03-22T07:24:42.968Z,57.11
2018-03-22T07:27:12.889Z,57.03
2018-03-22T07:29:41.867Z,56.81
2018-03-22T07:32:10.818Z,56.80
2018-03-22T07:34:40.044Z,56.62
2018-03-22T07:37:09.000Z,56.99
2018-03-22T07:39:37.994Z,57.11
2018-03-22T07:42:07.370Z,57.00
2018-03-22T07:44:40.366Z,56.69
2018-03-22T07:47:09.456Z,56.68
2018-03-22T07:49:38.928Z,56.33
2018-03-22T07:52:07.841Z,56.06
2018-03-22T07:54:36.822Z,56.02
2018-03-22T07:57:06.533Z,55.66
2018-03-22T07:59:35.609Z,56.31
2018-03-22T08:02:05.864Z,56.05
2018-03-22T08:04:35.150Z,55.69
2018-03-22T08:07:05.745Z,55.89
2018-03-22T08:09:34.937Z,55.15
2018-03-22T08:12:05.171Z,54.68
2018-03-22T08:14:34.113Z,54.45
2018-03-22T08:17:04.091Z,54.13
2018-03-22T08:19:33.392Z,54.19
2018-03-22T08:22:05.102Z,53.95
2018-03-22T08:24:34.188Z,54.16
2018-03-22T08:27:03.749Z,54.03
2018-03-22T08:29:32.748Z,54.24
2018-03-22T08:32:02.844Z,53.59
2018-03-22T08:34:32.126Z,53.50
2018-03-22T08:37:01.266Z,53.59
2018-03-22T08:39:30.489Z,53.21
2018-03-22T08:42:00.088Z,53.29
2018-03-22T08:44:29.055Z,53.25
2018-03-22T08:46:57.974Z,53.39
2018-03-22T08:49:27.221Z,53.31
2018-03-22T08:51:56.200Z,53.27
2018-03-22T08:54:25.226Z,53.24
2018-03-22T08:56:54.538Z,52.81
2018-03-22T08:59:23.584Z,52.93
2018-03-22T09:01:53.506Z,53.64
2018-03-22T09:04:22.650Z,54.06
2018-03-22T09:06:51.563Z,54.19
2018-03-22T09:09:20.481Z,54.43
2018-03-22T09:11:49.443Z,54.48
2018-03-22T09:14:18.358Z,54.84
2018-03-22T09:16:47.227Z,54.93
2018-03-22T09:19:16.462Z,54.66
2018-03-22T09:21:45.498Z,54.39
2018-03-22T09:24:14.432Z,54.45
2018-03-22T09:26:47.693Z,54.57
2018-03-22T09:29:16.791Z,54.41
2018-03-22T09:31:45.820Z,54.58
2018-03-22T09:34:15.384Z,54.38
2018-03-22T09:36:44.515Z,54.29
2018-03-22T09:39:13.628Z,55.83
2018-03-22T09:41:42.965Z,56.19
2018-03-22T09:44:11.936Z,56.72
2018-03-22T09:46:41.453Z,58.08
2018-03-22T09:49:11.068Z,59.12
2018-03-22T09:51:40.032Z,62.80
2018-03-22T09:54:09.005Z,65.42
2018-03-22T09:56:38.266Z,67.09
2018-03-22T09:59:07.270Z,68.02
2018-03-22T10:01:36.224Z,67.72
2018-03-22T10:04:06.079Z,68.28
2018-03-22T10:06:34.957Z,68.43
2018-03-22T10:09:04.545Z,68.00
2018-03-22T10:11:34.835Z,68.44
2018-03-22T10:14:05.594Z,68.49
2018-03-22T10:16:34.562Z,68.90
2018-03-22T10:19:05.195Z,68.50
2018-03-22T10:21:34.219Z,69.20
2018-03-22T10:24:04.084Z,68.97
2018-03-22T10:26:33.315Z,69.56
2018-03-22T10:29:03.218Z,69.99
2018-03-22T10:31:32.144Z,69.27
2018-03-22T10:34:01.628Z,70.17
2018-03-22T10:36:30.577Z,71.32
2018-03-22T10:38:59.489Z,72.17
2018-03-22T10:41:28.728Z,73.47
2018-03-22T10:43:57.665Z,73.56
2018-03-22T10:46:26.987Z,74.11
2018-03-22T10:48:56.294Z,74.46
2018-03-22T10:51:25.659Z,74.44
2018-03-22T10:53:54.593Z,74.61
2018-03-22T10:56:23.838Z,75.04
2018-03-22T10:58:52.808Z,75.48
2018-03-22T11:01:25.830Z,76.17
2018-03-22T11:03:55.060Z,76.88
2018-03-22T11:06:23.955Z,76.87
2018-03-22T11:08:52.845Z,78.12
2018-03-22T11:11:21.812Z,78.41
2018-03-22T11:13:50.815Z,78.08
2018-03-22T11:16:20.342Z,78.54
2018-03-22T11:18:49.325Z,78.80
2018-03-22T11:21:18.297Z,78.41
2018-03-22T11:23:47.186Z,78.33
2018-03-22T11:26:16.096Z,78.62
2018-03-22T11:28:45.315Z,77.90
2018-03-22T11:31:14.902Z,77.97
2018-03-22T11:33:43.883Z,78.63
2018-03-22T11:36:13.175Z,78.62
2018-03-22T11:38:42.121Z,78.46
2018-03-22T11:41:11.090Z,77.83
2018-03-22T11:43:40.358Z,77.79
2018-03-22T11:46:09.597Z,78.07
2018-03-22T11:48:39.394Z,77.77
2018-03-22T11:51:08.383Z,77.85
2018-03-22T11:53:37.282Z,77.83
2018-03-22T11:56:06.276Z,77.55
2018-03-22T11:58:35.568Z,78.50
2018-03-22T12:01:05.193Z,78.62
2018-03-22T12:03:34.128Z,77.80
2018-03-22T12:06:04.972Z,78.17
2018-03-22T12:08:33.892Z,78.10
2018-03-22T12:11:03.617Z,78.03
2018-03-22T12:13:32.917Z,77.59
2018-03-22T12:16:03.722Z,77.34
2018-03-22T12:18:32.602Z,77.19
2018-03-22T12:21:02.934Z,77.37
2018-03-22T12:23:34.803Z,77.38
2018-03-22T12:26:08.348Z,77.63
2018-03-22T12:28:37.655Z,78.12
2018-03-22T12:31:06.709Z,78.65
2018-03-22T12:33:35.790Z,78.40
2018-03-22T12:36:05.864Z,78.39
2018-03-22T12:38:34.783Z,78.50
2018-03-22T12:41:04.298Z,78.02
2018-03-22T12:43:34.594Z,78.25
2018-03-22T12:46:04.675Z,78.08
2018-03-22T12:48:33.619Z,77.60
2018-03-22T12:51:03.606Z,77.54
2018-03-22T12:53:32.548Z,78.30
2018-03-22T12:56:01.779Z,78.10
2018-03-22T12:58:31.027Z,78.18
2018-03-22T13:01:00.081Z,78.71
2018-03-22T13:03:29.019Z,78.74
2018-03-22T13:05:58.344Z,78.66
2018-03-22T13:08:27.333Z,78.67
2018-03-22T13:10:56.324Z,78.98
2018-03-22T13:13:25.588Z,79.02
2018-03-22T13:15:54.535Z,78.65
2018-03-22T13:18:23.609Z,78.07
2018-03-22T13:20:53.276Z,76.78
2018-03-22T13:23:22.601Z,76.50
2018-03-22T13:25:51.598Z,76.01
2018-03-22T13:28:20.916Z,75.61
2018-03-22T13:30:49.928Z,76.12
2018-03-22T13:33:19.062Z,75.83
2018-03-22T13:35:49.488Z,75.86
2018-03-22T13:38:18.630Z,74.98
2018-03-22T13:40:47.563Z,75.13
2018-03-22T13:43:17.394Z,75.08
2018-03-22T13:45:46.392Z,75.31
2018-03-22T13:48:15.358Z,75.55
2018-03-22T13:50:44.589Z,75.47
2018-03-22T13:53:13.489Z,75.37
2018-03-22T13:55:42.429Z,75.12
2018-03-22T13:58:12.080Z,75.34
2018-03-22T14:00:41.011Z,75.28
2018-03-22T14:03:10.017Z,75.04
2018-03-22T14:05:39.321Z,75.38
2018-03-22T14:08:10.096Z,75.94
2018-03-22T14:10:39.095Z,76.38
2018-03-22T14:13:08.721Z,76.84
2018-03-22T14:15:37.665Z,77.41
2018-03-22T14:18:06.594Z,77.77
2018-03-22T14:20:35.840Z,77.52
2018-03-22T14:23:05.554Z,77.45
2018-03-22T14:25:34.573Z,77.63
2018-03-22T14:28:07.269Z,77.70
2018-03-22T14:30:36.312Z,77.95
2018-03-22T14:33:05.420Z,78.42
2018-03-22T14:35:34.659Z,77.88
2018-03-22T14:38:05.420Z,78.58
2018-03-22T14:40:34.464Z,78.74
2018-03-22T14:43:04.619Z,78.30
2018-03-22T14:45:33.594Z,77.82
2018-03-22T14:48:03.658Z,78.77
2018-03-22T14:50:33.185Z,78.18
2018-03-22T14:53:03.044Z,78.63
2018-03-22T14:55:32.126Z,78.64
2018-03-22T14:58:01.351Z,78.04
2018-03-22T15:00:35.556Z,78.85
2018-03-22T15:03:14.448Z,78.51
2018-03-22T15:05:43.749Z,78.76
2018-03-22T15:08:13.091Z,78.95
2018-03-22T15:10:42.381Z,79.86
2018-03-22T15:13:13.136Z,80.24
2018-03-22T15:15:42.629Z,80.18
2018-03-22T15:18:11.879Z,79.56
2018-03-22T15:23:09.011Z,80.68
2018-03-22T15:25:38.040Z,80.24
2018-03-22T15:28:06.974Z,79.79
2018-03-22T15:30:37.380Z,80.41
2018-03-22T15:33:06.290Z,81.02
2018-03-22T15:35:35.289Z,81.08
2018-03-22T15:38:05.624Z,81.41
2018-03-22T15:40:34.718Z,81.26
2018-03-22T15:43:04.760Z,81.02
2018-03-22T15:45:34.265Z,81.11
2018-03-22T15:48:04.358Z,80.78
2018-03-22T15:50:33.411Z,80.81
2018-03-22T15:53:03.207Z,81.03
2018-03-22T15:55:32.113Z,80.93
2018-03-22T15:58:02.613Z,80.94
2018-03-22T16:00:31.857Z,81.17
2018-03-22T16:03:02.445Z,80.97
2018-03-22T16:05:31.400Z,80.79
2018-03-22T16:08:00.554Z,81.10
2018-03-22T16:10:29.451Z,80.73
2018-03-22T16:12:58.407Z,81.28
2018-03-22T16:15:27.596Z,81.26
2018-03-22T16:17:56.602Z,81.16
2018-03-22T16:20:25.532Z,81.18
2018-03-22T16:22:54.899Z,80.76
2018-03-22T16:25:23.814Z,80.35
2018-03-22T16:27:52.919Z,80.11
2018-03-22T16:30:22.597Z,79.83
2018-03-22T16:32:51.651Z,79.55
2018-03-22T16:35:21.143Z,79.57
2018-03-22T16:37:51.550Z,79.41
2018-03-22T16:40:20.586Z,78.66
2018-03-22T16:42:49.515Z,78.22
2018-03-22T16:45:18.899Z,76.82
2018-03-22T16:47:47.823Z,75.90
2018-03-22T16:50:17.170Z,75.66
2018-03-22T16:52:46.617Z,75.81
2018-03-22T16:55:15.904Z,75.53
2018-03-22T16:57:44.836Z,75.86
2018-03-22T17:00:14.689Z,74.84
2018-03-22T17:02:43.563Z,74.99
2018-03-22T17:05:12.560Z,74.75
2018-03-22T17:07:41.915Z,74.69
2018-03-22T17:10:10.898Z,74.86
2018-03-22T17:15:06.368Z,75.25
2018-03-22T17:17:35.333Z,75.41
2018-03-22T17:20:07.509Z,75.62
2018-03-22T17:22:36.850Z,75.83
2018-03-22T17:25:06.714Z,75.01
2018-03-22T17:27:35.652Z,75.47
2018-03-22T17:30:06.185Z,74.94
2018-03-22T17:32:35.369Z,75.61
2018-03-22T17:35:05.579Z,76.03
2018-03-22T17:37:34.663Z,75.69
2018-03-22T17:40:05.076Z,75.45
2018-03-22T17:42:35.466Z,75.76
2018-03-22T17:45:04.664Z,75.96
2018-03-22T17:47:34.453Z,75.87
2018-03-22T17:50:04.780Z,76.62
2018-03-22T17:52:34.259Z,78.02
2018-03-22T17:55:04.347Z,78.40
2018-03-22T17:57:33.384Z,78.80
2018-03-22T18:00:03.796Z,78.92
2018-03-22T18:02:33.401Z,78.79
2018-03-22T18:05:02.896Z,78.47
2018-03-22T18:07:32.680Z,79.04
2018-03-22T18:10:04.066Z,78.90
2018-03-22T18:12:33.187Z,78.84
2018-03-22T18:15:03.015Z,78.70
2018-03-22T18:17:32.454Z,78.57
2018-03-22T18:20:03.338Z,79.23
2018-03-22T18:22:32.300Z,79.63
2018-03-22T18:25:02.060Z,79.49
2018-03-22T18:27:35.060Z,79.50
2018-03-22T18:30:14.718Z,79.48
2018-03-22T18:32:51.237Z,79.47
2018-03-22T18:35:20.802Z,79.67
2018-03-22T18:37:49.735Z,80.10
2018-03-22T18:40:19.264Z,80.36
2018-03-22T18:42:48.127Z,80.20
2018-03-22T18:45:17.118Z,80.08
2018-03-22T18:47:46.275Z,79.93
2018-03-22T18:50:15.623Z,79.94
2018-03-22T18:52:45.520Z,79.90
2018-03-22T18:55:14.743Z,80.11
2018-03-22T18:57:43.770Z,80.65
2018-03-22T19:00:13.120Z,80.78
2018-03-22T19:02:42.476Z,80.96
2018-03-22T19:05:11.425Z,80.73
2018-03-22T19:07:40.351Z,80.92
2018-03-22T19:10:09.574Z,80.81
2018-03-22T19:12:39.301Z,81.19
2018-03-22T19:15:08.522Z,81.12
2018-03-22T19:17:37.525Z,80.81
2018-03-22T19:20:08.129Z,81.06
2018-03-22T19:22:37.120Z,81.26
2018-03-22T19:25:07.328Z,81.56
2018-03-22T19:27:36.223Z,81.33
2018-03-22T19:30:06.273Z,81.26
2018-03-22T19:32:36.214Z,81.70
2018-03-22T19:35:05.849Z,81.67
2018-03-22T19:37:34.766Z,81.60
2018-03-22T19:40:05.811Z,81.77
2018-03-22T19:42:34.771Z,81.64
2018-03-22T19:45:04.385Z,81.86
2018-03-22T19:47:33.559Z,81.83
2018-03-22T19:50:05.044Z,81.90
2018-03-22T19:52:34.010Z,82.04
2018-03-22T19:55:03.973Z,82.35
2018-03-22T19:57:33.029Z,81.82
2018-03-22T20:00:04.660Z,81.73
2018-03-22T20:02:33.682Z,82.65
2018-03-22T20:05:03.523Z,82.74
2018-03-22T20:07:32.821Z,82.58
2018-03-22T20:10:03.695Z,82.88
2018-03-22T20:12:32.628Z,82.86
2018-03-22T20:15:04.229Z,83.00
2018-03-22T20:17:33.272Z,83.03
2018-03-22T20:20:03.555Z,82.96
2018-03-22T20:22:32.833Z,83.38
2018-03-22T20:25:03.211Z,83.41
2018-03-22T20:27:32.211Z,83.62
2018-03-22T20:30:03.524Z,83.63
2018-03-22T20:32:32.406Z,84.01
2018-03-22T20:35:02.528Z,83.94
2018-03-22T20:37:31.920Z,83.66
2018-03-22T20:40:00.971Z,83.73
2018-03-22T20:42:31.036Z,83.68
2018-03-22T20:45:04.246Z,83.65
2018-03-22T20:47:34.535Z,83.89
2018-03-22T20:50:04.404Z,83.97
2018-03-22T20:52:33.794Z,83.92
2018-03-22T20:55:03.211Z,83.85
2018-03-22T20:57:32.147Z,83.39
2018-03-22T21:00:03.189Z,83.40
2018-03-22T21:02:32.211Z,83.20
2018-03-22T21:05:01.780Z,83.53
2018-03-22T21:07:31.025Z,83.46
2018-03-22T21:09:59.924Z,83.37
2018-03-22T21:12:28.851Z,83.15
2018-03-22T21:14:57.766Z,83.16
2018-03-22T21:17:26.921Z,83.38
2018-03-22T21:19:56.135Z,83.50
2018-03-22T21:22:25.523Z,83.98
2018-03-22T21:24:54.387Z,84.18
2018-03-22T21:27:24.382Z,83.89
2018-03-22T21:29:53.275Z,83.79
2018-03-22T21:32:22.135Z,83.56
2018-03-22T21:34:51.550Z,83.86
2018-03-22T21:37:21.337Z,83.89
2018-03-22T21:39:52.231Z,83.78
2018-03-22T21:42:23.132Z,83.66
2018-03-22T21:44:53.399Z,83.45
2018-03-22T21:47:34.660Z,83.74
2018-03-22T21:50:05.550Z,84.16
2018-03-22T21:52:45.956Z,84.38
2018-03-22T21:55:15.848Z,84.16
2018-03-22T21:57:45.185Z,84.30
2018-03-22T22:00:14.752Z,84.23
2018-03-22T22:02:44.484Z,83.92
2018-03-22T22:05:14.534Z,83.90
2018-03-22T22:07:44.589Z,83.88
2018-03-22T22:10:14.084Z,84.23
2018-03-22T22:12:43.847Z,84.92
2018-03-22T22:15:13.436Z,84.65
2018-03-22T22:17:42.920Z,84.67
2018-03-22T22:20:12.634Z,84.55
2018-03-22T22:22:42.006Z,84.56
2018-03-22T22:25:11.359Z,84.67
2018-03-22T22:27:40.672Z,85.17
2018-03-22T22:30:09.593Z,85.30
2018-03-22T22:32:38.485Z,84.89
2018-03-22T22:35:07.810Z,84.59
2018-03-22T22:37:36.761Z,84.75
2018-03-22T22:40:05.740Z,84.64
2018-03-22T22:42:35.174Z,84.51
2018-03-22T22:45:05.017Z,84.67
2018-03-22T22:47:33.964Z,84.56
2018-03-22T22:50:03.986Z,84.51
2018-03-22T22:52:32.866Z,84.66
2018-03-22T22:55:02.180Z,84.98
2018-03-22T22:57:31.566Z,85.09
2018-03-22T23:00:02.723Z,85.17
2018-03-22T23:02:31.815Z,85.07
2018-03-22T23:05:01.903Z,85.01
2018-03-22T23:07:30.856Z,84.47
2018-03-22T23:09:59.925Z,84.49
2018-03-22T23:12:29.304Z,84.40
2018-03-22T23:14:58.205Z,84.44
2018-03-22T23:17:27.113Z,84.49
2018-03-22T23:19:56.404Z,84.29
2018-03-22T23:22:25.311Z,84.36
2018-03-22T23:24:54.163Z,84.31
2018-03-22T23:27:23.049Z,84.08
2018-03-22T23:29:51.958Z,83.88
2018-03-22T23:32:21.334Z,83.94
2018-03-22T23:34:50.259Z,83.87
2018-03-22T23:37:19.133Z,83.79
2018-03-22T23:39:48.008Z,83.78
2018-03-22T23:42:16.907Z,83.88
2018-03-22T23:44:46.631Z,83.84
2018-03-22T23:47:15.755Z,84.00
2018-03-22T23:49:44.672Z,84.27
2018-03-22T23:52:14.260Z,84.32
2018-03-22T23:54:43.171Z,84.17
2018-03-22T23:57:12.087Z,84.11
2018-03-22T23:59:41.867Z,83.70
